Terminal Aerodrome Forecast
Issued by NWS Charleston, WV

Current Version | Previous Version | Text Only | Print | Product List | Glossary Off
Versions: 1 2 3 4 5 6 7 8 9 10 11 12 13 14 15 16 17 18 19 20 21 22 23

000
FTUS41 KRLX 161500 AAB
TAFEKN
TAF AMD
KEKN 161535Z 1616/1712 34007KT P6SM FEW035
      TEMPO 1616/1617 BKN030
     FM162200 09007KT P6SM SKC
     FM170200 13008KT P6SM SKC=

USA.gov is the U.S. government's official web portal to all federal, state and local government web resources and services.